createdAt,value
2017-07-27T00:00:11.236Z,0
2017-07-27T00:01:13.686Z,0
2017-07-27T00:02:16.123Z,0
2017-07-27T00:03:18.227Z,0
2017-07-27T00:04:20.678Z,0
2017-07-27T00:05:23.117Z,0
2017-07-27T00:06:25.228Z,0
2017-07-27T00:07:27.679Z,0
2017-07-27T00:08:30.071Z,0
2017-07-27T00:09:32.174Z,0
2017-07-27T00:10:34.379Z,0
2017-07-27T00:11:36.490Z,0
2017-07-27T00:12:38.592Z,0
2017-07-27T00:13:40.688Z,0
2017-07-27T00:14:42.797Z,0
2017-07-27T00:15:44.909Z,0
2017-07-27T00:16:47.022Z,0
2017-07-27T00:17:49.126Z,0
2017-07-27T00:18:51.228Z,0
2017-07-27T00:19:53.675Z,0
2017-07-27T00:20:55.816Z,0
2017-07-27T00:21:57.920Z,0
2017-07-27T00:23:00.020Z,0
2017-07-27T00:24:02.271Z,0
2017-07-27T00:25:04.719Z,0
2017-07-27T00:26:07.161Z,0
2017-07-27T00:27:09.272Z,0
2017-07-27T00:28:11.375Z,0
2017-07-27T00:29:13.826Z,0
2017-07-27T00:30:15.925Z,0
2017-07-27T00:31:18.359Z,0
2017-07-27T00:32:20.814Z,0
2017-07-27T00:33:23.292Z,0
2017-07-27T00:34:25.720Z,0
2017-07-27T00:35:27.833Z,0
2017-07-27T00:36:30.264Z,0
2017-07-27T00:37:32.369Z,0
2017-07-27T00:38:34.473Z,0
2017-07-27T00:39:36.911Z,0
2017-07-27T00:40:39.344Z,0
2017-07-27T00:41:41.488Z,0
2017-07-27T00:42:43.584Z,0
2017-07-27T00:43:45.707Z,0
2017-07-27T00:44:47.803Z,0
2017-07-27T00:45:49.897Z,0
2017-07-27T00:46:52.018Z,0
2017-07-27T00:47:54.119Z,0
2017-07-27T00:48:56.909Z,0
2017-07-27T00:49:59.013Z,0
2017-07-27T00:51:01.459Z,0
2017-07-27T00:52:03.573Z,0
2017-07-27T00:53:06.009Z,0
2017-07-27T00:54:08.454Z,0
2017-07-27T00:55:10.692Z,0
2017-07-27T00:56:12.793Z,0
2017-07-27T00:57:15.599Z,0
2017-07-27T00:58:17.703Z,0
2017-07-27T00:59:20.151Z,0
2017-07-27T01:00:22.248Z,0
2017-07-27T01:01:24.354Z,0
2017-07-27T01:02:26.805Z,0
2017-07-27T01:03:28.910Z,0
2017-07-27T01:04:31.028Z,0
2017-07-27T01:05:33.463Z,0
2017-07-27T01:06:35.549Z,0
2017-07-27T01:07:38.002Z,0
2017-07-27T01:08:40.103Z,0
2017-07-27T01:09:42.546Z,0
2017-07-27T01:10:44.643Z,0
2017-07-27T01:11:47.441Z,0
2017-07-27T01:12:49.554Z,0
2017-07-27T01:13:51.652Z,0
2017-07-27T01:14:54.083Z,0
2017-07-27T01:15:56.542Z,0
2017-07-27T01:16:59.347Z,0
2017-07-27T01:18:02.137Z,0
2017-07-27T01:19:04.919Z,0
2017-07-27T01:20:07.028Z,0
2017-07-27T01:21:09.472Z,0
2017-07-27T01:22:11.570Z,0
2017-07-27T01:23:13.681Z,0
2017-07-27T01:24:15.785Z,0
2017-07-27T01:25:18.587Z,0
2017-07-27T01:26:21.038Z,0
2017-07-27T01:27:23.132Z,0
2017-07-27T01:28:25.252Z,0
2017-07-27T01:29:27.706Z,0
2017-07-27T01:30:29.812Z,0
2017-07-27T01:31:31.916Z,0
2017-07-27T01:32:34.014Z,0
2017-07-27T01:33:36.815Z,0
2017-07-27T01:34:39.259Z,0
2017-07-27T01:35:41.363Z,0
2017-07-27T01:36:43.811Z,0
2017-07-27T01:37:45.898Z,0
2017-07-27T01:38:48.009Z,0
2017-07-27T01:39:51.168Z,0
2017-07-27T01:40:53.609Z,0
2017-07-27T01:41:56.397Z,0
2017-07-27T01:42:58.834Z,0
2017-07-27T01:44:01.269Z,0
2017-07-27T01:45:04.055Z,0
2017-07-27T01:46:06.076Z,0
2017-07-27T01:47:08.101Z,0
2017-07-27T01:48:10.458Z,0
2017-07-27T01:49:12.487Z,0
2017-07-27T01:50:14.511Z,0
2017-07-27T01:51:16.533Z,0
2017-07-27T01:52:18.555Z,0
2017-07-27T01:53:20.908Z,0
2017-07-27T01:54:22.932Z,0
2017-07-27T01:55:25.294Z,0
2017-07-27T01:56:27.311Z,0
2017-07-27T01:57:29.330Z,0
2017-07-27T01:58:31.363Z,0
2017-07-27T01:59:33.407Z,0
2017-07-27T02:00:35.432Z,0
2017-07-27T02:01:37.788Z,0
2017-07-27T02:02:40.159Z,0
2017-07-27T02:03:42.534Z,0
2017-07-27T02:04:45.234Z,0
2017-07-27T02:05:47.946Z,0
2017-07-27T02:06:49.962Z,0
2017-07-27T02:07:51.981Z,0
2017-07-27T02:08:54.003Z,0
2017-07-27T02:09:56.023Z,0
2017-07-27T02:10:58.051Z,0
2017-07-27T02:12:00.073Z,0
2017-07-27T02:13:02.417Z,0
2017-07-27T02:14:04.790Z,0
2017-07-27T02:15:07.158Z,0
2017-07-27T02:16:09.909Z,0
2017-07-27T02:17:12.262Z,0
2017-07-27T02:18:14.282Z,0
2017-07-27T02:19:16.300Z,0
2017-07-27T02:20:18.329Z,0
2017-07-27T02:21:20.688Z,0
2017-07-27T02:22:23.048Z,0
2017-07-27T02:23:25.065Z,0
2017-07-27T02:24:27.430Z,0
2017-07-27T02:25:29.457Z,0
2017-07-27T02:26:31.481Z,0
2017-07-27T02:27:33.508Z,0
2017-07-27T02:28:35.867Z,0
2017-07-27T02:29:37.887Z,0
2017-07-27T02:30:39.907Z,0
2017-07-27T02:31:41.921Z,0
2017-07-27T02:32:43.946Z,0
2017-07-27T02:33:45.965Z,0
2017-07-27T02:34:47.986Z,0
2017-07-27T02:35:50.348Z,0
2017-07-27T02:36:52.717Z,0
2017-07-27T02:37:55.094Z,0
2017-07-27T02:38:57.131Z,4
2017-07-27T02:39:59.162Z,4
2017-07-27T02:41:01.186Z,4
2017-07-27T02:42:03.202Z,4
2017-07-27T02:43:05.574Z,0
2017-07-27T02:44:07.934Z,4
2017-07-27T02:45:10.314Z,4
2017-07-27T02:46:12.349Z,4
2017-07-27T02:47:14.716Z,8
2017-07-27T02:48:16.738Z,4
2017-07-27T02:49:18.769Z,8
2017-07-27T02:50:21.486Z,8
2017-07-27T02:51:23.850Z,12
2017-07-27T02:52:26.249Z,8
2017-07-27T02:53:28.263Z,16
2017-07-27T02:54:30.975Z,16
2017-07-27T02:55:33.337Z,16
2017-07-27T02:56:35.361Z,20
2017-07-27T02:57:37.396Z,24
2017-07-27T02:58:39.409Z,28
2017-07-27T02:59:41.433Z,28
2017-07-27T03:00:43.789Z,36
2017-07-27T03:01:46.148Z,40
2017-07-27T03:02:48.183Z,44
2017-07-27T03:03:50.196Z,52
2017-07-27T03:04:52.215Z,56
2017-07-27T03:05:54.913Z,64
2017-07-27T03:06:56.932Z,72
2017-07-27T03:07:59.293Z,84
2017-07-27T03:09:01.316Z,92
2017-07-27T03:10:03.344Z,104
2017-07-27T03:11:05.371Z,116
2017-07-27T03:12:07.393Z,128
2017-07-27T03:13:09.417Z,144
2017-07-27T03:14:11.775Z,156
2017-07-27T03:15:13.806Z,172
2017-07-27T03:16:15.830Z,188
2017-07-27T03:17:18.533Z,204
2017-07-27T03:18:20.557Z,224
2017-07-27T03:19:22.569Z,248
2017-07-27T03:20:24.590Z,268
2017-07-27T03:21:27.313Z,296
2017-07-27T03:22:29.687Z,320
2017-07-27T03:23:31.704Z,344
2017-07-27T03:24:33.725Z,372
2017-07-27T03:25:35.744Z,396
2017-07-27T03:26:37.783Z,424
2017-07-27T03:27:39.810Z,452
2017-07-27T03:28:42.502Z,480
2017-07-27T03:29:44.526Z,512
2017-07-27T03:30:46.547Z,540
2017-07-27T03:31:49.257Z,572
2017-07-27T03:32:51.288Z,600
2017-07-27T03:33:53.301Z,636
2017-07-27T03:34:55.326Z,668
2017-07-27T03:35:57.360Z,704
2017-07-27T03:36:59.720Z,736
2017-07-27T03:38:01.748Z,776
2017-07-27T03:39:03.775Z,812
2017-07-27T03:40:06.167Z,852
2017-07-27T03:41:08.529Z,896
2017-07-27T03:42:10.547Z,936
2017-07-27T03:43:12.583Z,980
2017-07-27T03:44:14.601Z,1020
2017-07-27T03:45:16.976Z,1068
2017-07-27T03:46:19.690Z,1112
2017-07-27T03:47:21.699Z,1152
2017-07-27T03:48:23.725Z,1188
2017-07-27T03:49:25.750Z,1228
2017-07-27T03:50:27.778Z,1264
2017-07-27T03:51:30.142Z,1300
2017-07-27T03:52:32.835Z,1332
2017-07-27T03:53:34.869Z,1372
2017-07-27T03:54:36.876Z,1400
2017-07-27T03:55:39.235Z,1436
2017-07-27T03:56:41.263Z,1468
2017-07-27T03:57:43.959Z,1496
2017-07-27T03:58:45.981Z,1524
2017-07-27T03:59:48.021Z,1548
2017-07-27T04:00:50.714Z,1568
2017-07-27T04:01:53.092Z,1588
2017-07-27T04:02:55.463Z,1600
2017-07-27T04:03:57.521Z,1616
2017-07-27T04:04:59.551Z,1624
2017-07-27T04:06:01.578Z,1640
2017-07-27T04:07:04.273Z,1660
2017-07-27T04:08:06.968Z,1672
2017-07-27T04:09:08.988Z,1672
2017-07-27T04:10:11.010Z,1676
2017-07-27T04:11:13.046Z,1712
2017-07-27T04:12:15.075Z,1756
2017-07-27T04:13:17.435Z,1816
2017-07-27T04:14:19.460Z,1888
2017-07-27T04:15:21.493Z,1952
2017-07-27T04:16:23.864Z,2024
2017-07-27T04:17:25.891Z,2100
2017-07-27T04:18:27.921Z,2176
2017-07-27T04:19:29.949Z,2252
2017-07-27T04:20:31.971Z,2320
2017-07-27T04:21:33.985Z,2412
2017-07-27T04:22:36.008Z,2544
2017-07-27T04:23:38.023Z,2688
2017-07-27T04:24:40.051Z,2832
2017-07-27T04:25:42.085Z,2968
2017-07-27T04:26:44.102Z,3068
2017-07-27T04:27:46.465Z,3172
2017-07-27T04:28:48.480Z,3284
2017-07-27T04:29:50.849Z,3408
2017-07-27T04:30:53.208Z,3548
2017-07-27T04:31:55.246Z,3720
2017-07-27T04:32:57.975Z,3952
2017-07-27T04:34:00.719Z,4172
2017-07-27T04:35:03.754Z,4404
2017-07-27T04:36:06.459Z,4648
2017-07-27T04:37:08.495Z,4876
2017-07-27T04:38:10.523Z,5104
2017-07-27T04:39:12.551Z,5320
2017-07-27T04:40:14.911Z,5520
2017-07-27T04:41:16.936Z,5708
2017-07-27T04:42:18.966Z,5864
2017-07-27T04:43:20.992Z,6008
2017-07-27T04:44:23.002Z,6076
2017-07-27T04:45:25.370Z,6224
2017-07-27T04:46:27.737Z,6332
2017-07-27T04:47:30.106Z,6484
2017-07-27T04:48:32.815Z,6624
2017-07-27T04:49:34.845Z,6796
2017-07-27T04:50:36.883Z,6968
2017-07-27T04:51:39.583Z,7220
2017-07-27T04:52:41.613Z,7364
2017-07-27T04:53:43.980Z,7512
2017-07-27T04:54:46.003Z,7532
2017-07-27T04:55:48.028Z,7520
2017-07-27T04:56:50.055Z,7544
2017-07-27T04:57:52.416Z,7528
2017-07-27T04:58:54.790Z,7496
2017-07-27T04:59:57.495Z,7488
2017-07-27T05:00:59.522Z,7520
2017-07-27T05:02:01.546Z,7580
2017-07-27T05:03:03.568Z,7580
2017-07-27T05:04:05.922Z,7680
2017-07-27T05:05:07.950Z,7800
2017-07-27T05:06:09.980Z,7972
2017-07-27T05:07:12.706Z,8172
2017-07-27T05:08:14.731Z,8384
2017-07-27T05:09:16.774Z,8604
2017-07-27T05:10:19.140Z,8768
2017-07-27T05:11:21.172Z,8792
2017-07-27T05:12:23.197Z,8640
2017-07-27T05:13:25.247Z,8368
2017-07-27T05:14:27.282Z,8008
2017-07-27T05:15:29.668Z,7608
2017-07-27T05:16:32.745Z,7220
2017-07-27T05:17:34.769Z,6880
2017-07-27T05:18:37.130Z,6568
2017-07-27T05:19:39.483Z,6296
2017-07-27T05:20:41.515Z,6100
2017-07-27T05:21:43.543Z,5952
2017-07-27T05:22:45.568Z,5844
2017-07-27T05:23:47.613Z,5772
2017-07-27T05:24:49.625Z,5728
2017-07-27T05:25:52.008Z,5716
2017-07-27T05:26:54.042Z,5728
2017-07-27T05:27:56.064Z,5760
2017-07-27T05:28:58.433Z,5836
2017-07-27T05:30:00.809Z,5944
2017-07-27T05:31:02.839Z,6108
2017-07-27T05:32:05.205Z,6332
2017-07-27T05:33:07.225Z,6588
2017-07-27T05:34:09.598Z,6872
2017-07-27T05:35:11.987Z,7172
2017-07-27T05:36:14.851Z,7460
2017-07-27T05:37:19.489Z,7712
2017-07-27T05:38:31.330Z,7940
2017-07-27T05:39:34.033Z,8096
2017-07-27T05:40:36.953Z,8220
2017-07-27T05:41:48.094Z,8328
2017-07-27T05:42:50.467Z,8384
2017-07-27T05:43:52.492Z,8400
2017-07-27T05:44:54.521Z,8404
2017-07-27T05:45:56.883Z,8420
2017-07-27T05:46:58.918Z,8444
2017-07-27T05:48:00.930Z,8500
2017-07-27T05:49:02.982Z,8600
2017-07-27T05:50:05.355Z,8728
2017-07-27T05:51:07.740Z,8892
2017-07-27T05:52:10.111Z,9084
2017-07-27T05:53:12.475Z,9308
2017-07-27T05:54:14.504Z,9504
2017-07-27T05:55:16.548Z,9656
2017-07-27T05:56:18.562Z,9728
2017-07-27T05:57:20.927Z,9672
2017-07-27T05:58:22.960Z,9516
2017-07-27T05:59:25.062Z,9320
2017-07-27T06:00:27.326Z,9140
2017-07-27T06:01:30.091Z,9028
2017-07-27T06:02:39.393Z,8976
2017-07-27T06:03:43.799Z,8976
2017-07-27T06:04:46.825Z,9000
2017-07-27T06:05:53.502Z,9028
2017-07-27T06:06:55.534Z,9004
2017-07-27T06:07:57.574Z,8896
2017-07-27T06:08:59.955Z,8692
2017-07-27T06:10:02.322Z,8448
2017-07-27T06:11:04.735Z,8200
2017-07-27T06:12:06.795Z,7940
2017-07-27T06:13:08.828Z,7696
2017-07-27T06:14:11.194Z,7476
2017-07-27T06:15:13.234Z,7284
2017-07-27T06:16:15.262Z,7104
2017-07-27T06:17:17.627Z,6948
2017-07-27T06:18:19.654Z,6872
2017-07-27T06:19:21.689Z,6848
2017-07-27T06:20:23.717Z,6900
2017-07-27T06:21:25.751Z,7040
2017-07-27T06:22:27.789Z,7256
2017-07-27T06:23:29.818Z,7572
2017-07-27T06:24:32.183Z,7940
2017-07-27T06:25:34.210Z,8368
2017-07-27T06:26:36.245Z,8804
2017-07-27T06:27:38.627Z,9208
2017-07-27T06:28:40.648Z,9544
2017-07-27T06:29:42.683Z,9760
2017-07-27T06:30:44.711Z,9916
2017-07-27T06:31:46.729Z,10052
2017-07-27T06:32:48.760Z,10244
2017-07-27T06:33:50.787Z,10516
2017-07-27T06:34:52.812Z,10856
2017-07-27T06:35:55.197Z,11212
2017-07-27T06:36:57.225Z,11656
2017-07-27T06:37:59.599Z,12168
2017-07-27T06:39:01.622Z,12740
2017-07-27T06:40:03.658Z,13380
2017-07-27T06:41:06.026Z,14056
2017-07-27T06:42:08.063Z,14688
2017-07-27T06:43:10.448Z,15208
2017-07-27T06:44:12.482Z,15616
2017-07-27T06:45:14.513Z,15888
2017-07-27T06:46:16.544Z,15948
2017-07-27T06:47:18.928Z,16092
2017-07-27T06:48:20.985Z,16300
2017-07-27T06:49:23.364Z,16588
2017-07-27T06:50:25.396Z,16744
2017-07-27T06:51:27.433Z,16868
2017-07-27T06:52:29.459Z,17044
2017-07-27T06:53:31.480Z,17064
2017-07-27T06:54:33.503Z,16672
2017-07-27T06:55:35.552Z,16144
2017-07-27T06:56:37.588Z,15728
2017-07-27T06:57:40.639Z,15356
2017-07-27T06:58:43.012Z,14980
2017-07-27T06:59:45.046Z,14696
2017-07-27T07:00:47.092Z,14468
2017-07-27T07:01:49.123Z,14280
2017-07-27T07:02:51.157Z,14208
2017-07-27T07:03:53.203Z,14252
2017-07-27T07:04:55.229Z,14376
2017-07-27T07:05:57.599Z,14588
2017-07-27T07:06:59.982Z,14944
2017-07-27T07:08:02.350Z,15248
2017-07-27T07:09:05.063Z,15456
2017-07-27T07:10:07.130Z,15524
2017-07-27T07:11:09.508Z,15576
2017-07-27T07:12:12.232Z,15612
2017-07-27T07:13:14.264Z,15572
2017-07-27T07:14:16.290Z,15708
2017-07-27T07:15:18.668Z,15984
2017-07-27T07:16:20.695Z,16100
2017-07-27T07:17:23.073Z,16036
2017-07-27T07:18:25.106Z,15912
2017-07-27T07:19:27.475Z,15860
2017-07-27T07:20:29.852Z,15880
2017-07-27T07:21:31.890Z,16100
2017-07-27T07:22:33.938Z,16252
2017-07-27T07:23:35.976Z,16200
2017-07-27T07:24:38.338Z,15636
2017-07-27T07:25:40.367Z,14956
2017-07-27T07:26:42.766Z,14500
2017-07-27T07:27:45.151Z,14504
2017-07-27T07:28:47.204Z,14824
2017-07-27T07:29:49.231Z,14832
2017-07-27T07:30:51.599Z,14580
2017-07-27T07:31:53.967Z,14692
2017-07-27T07:32:55.998Z,15152
2017-07-27T07:33:58.034Z,15652
2017-07-27T07:35:00.738Z,15876
2017-07-27T07:36:03.122Z,16188
2017-07-27T07:37:05.484Z,16400
2017-07-27T07:38:07.859Z,16736
2017-07-27T07:39:10.239Z,17160
2017-07-27T07:40:12.609Z,17824
2017-07-27T07:41:15.331Z,18560
2017-07-27T07:42:17.363Z,19360
2017-07-27T07:43:19.406Z,20000
2017-07-27T07:44:21.442Z,20480
2017-07-27T07:45:23.800Z,20768
2017-07-27T07:46:25.840Z,20640
2017-07-27T07:47:27.891Z,20640
2017-07-27T07:48:29.920Z,20864
2017-07-27T07:49:31.944Z,20896
2017-07-27T07:50:34.316Z,20416
2017-07-27T07:51:36.683Z,19616
2017-07-27T07:52:38.728Z,18912
2017-07-27T07:53:40.770Z,18516
2017-07-27T07:54:42.803Z,18432
2017-07-27T07:55:45.229Z,17808
2017-07-27T07:56:47.960Z,17060
2017-07-27T07:57:50.684Z,16712
2017-07-27T07:58:52.728Z,16120
2017-07-27T07:59:54.759Z,15720
2017-07-27T08:00:56.829Z,16204
2017-07-27T08:01:59.561Z,17284
2017-07-27T08:03:01.586Z,18032
2017-07-27T08:04:03.967Z,18220
2017-07-27T08:05:06.386Z,18576
2017-07-27T08:06:08.424Z,19616
2017-07-27T08:07:10.800Z,20960
2017-07-27T08:08:12.841Z,22528
2017-07-27T08:09:15.213Z,23552
2017-07-27T08:10:17.608Z,24160
2017-07-27T08:11:19.645Z,24352
2017-07-27T08:12:21.678Z,24736
2017-07-27T08:13:24.068Z,24960
2017-07-27T08:14:26.442Z,24416
2017-07-27T08:15:28.821Z,23008
2017-07-27T08:16:30.876Z,21792
2017-07-27T08:17:32.918Z,21088
2017-07-27T08:18:35.285Z,21472
2017-07-27T08:19:38.011Z,22656
2017-07-27T08:20:40.039Z,23552
2017-07-27T08:21:42.068Z,24000
2017-07-27T08:22:44.776Z,23168
2017-07-27T08:23:46.809Z,23520
2017-07-27T08:24:48.847Z,24320
2017-07-27T08:25:51.283Z,23680
2017-07-27T08:26:53.314Z,21600
2017-07-27T08:27:55.370Z,18532
2017-07-27T08:28:58.099Z,15656
2017-07-27T08:30:00.460Z,15524
2017-07-27T08:31:02.497Z,16792
2017-07-27T08:32:04.534Z,18976
2017-07-27T08:33:06.911Z,21088
2017-07-27T08:34:09.295Z,22944
2017-07-27T08:35:11.324Z,25280
2017-07-27T08:36:13.356Z,27968
2017-07-27T08:37:15.742Z,32000
2017-07-27T08:38:17.769Z,35168
2017-07-27T08:39:19.807Z,35328
2017-07-27T08:40:22.172Z,36032
2017-07-27T08:41:24.217Z,37952
2017-07-27T08:42:26.255Z,43744
2017-07-27T08:43:28.618Z,45632
2017-07-27T08:44:30.665Z,39104
2017-07-27T08:45:32.732Z,41248
2017-07-27T08:46:35.098Z,36416
2017-07-27T08:47:37.136Z,29280
2017-07-27T08:48:39.516Z,30272
2017-07-27T08:49:41.565Z,30240
2017-07-27T08:50:43.737Z,30368
2017-07-27T08:51:45.776Z,30944
2017-07-27T08:52:48.158Z,30624
2017-07-27T08:53:50.194Z,31872
2017-07-27T08:54:52.600Z,30112
2017-07-27T08:55:55.048Z,28160
2017-07-27T08:56:57.077Z,25408
2017-07-27T08:57:59.444Z,23360
2017-07-27T08:59:01.487Z,16176
2017-07-27T09:00:03.524Z,12680
2017-07-27T09:01:05.559Z,15080
2017-07-27T09:02:07.593Z,15780
2017-07-27T09:03:09.967Z,17236
2017-07-27T09:04:12.003Z,17928
2017-07-27T09:05:14.042Z,20320
2017-07-27T09:06:16.409Z,17996
2017-07-27T09:07:19.124Z,14128
2017-07-27T09:08:21.172Z,11708
2017-07-27T09:09:23.206Z,12704
2017-07-27T09:10:25.228Z,15628
2017-07-27T09:11:27.272Z,14504
2017-07-27T09:12:29.308Z,11308
2017-07-27T09:13:31.676Z,10064
2017-07-27T09:14:33.714Z,9992
2017-07-27T09:15:36.084Z,9532
2017-07-27T09:16:38.126Z,8792
2017-07-27T09:17:40.488Z,7416
2017-07-27T09:18:42.516Z,8764
2017-07-27T09:19:44.567Z,9332
2017-07-27T09:20:46.597Z,9076
2017-07-27T09:21:48.630Z,9416
2017-07-27T09:22:51.348Z,8528
2017-07-27T09:23:53.381Z,8936
2017-07-27T09:24:55.425Z,8412
2017-07-27T09:25:57.450Z,8472
2017-07-27T09:26:59.828Z,9312
2017-07-27T09:28:02.879Z,10116
2017-07-27T09:29:04.906Z,9512
2017-07-27T09:30:06.933Z,9348
2017-07-27T09:31:08.976Z,8768
2017-07-27T09:32:11.002Z,9784
2017-07-27T09:33:13.041Z,10800
2017-07-27T09:34:15.065Z,11556
2017-07-27T09:35:17.098Z,12500
2017-07-27T09:36:19.479Z,9664
2017-07-27T09:37:21.511Z,9832
2017-07-27T09:38:23.544Z,12076
2017-07-27T09:39:25.935Z,13324
2017-07-27T09:40:27.972Z,13828
2017-07-27T09:41:30.354Z,12864
2017-07-27T09:42:32.392Z,13084
2017-07-27T09:43:34.440Z,11640
2017-07-27T09:44:36.809Z,10660
2017-07-27T09:45:38.836Z,9536
2017-07-27T09:46:40.870Z,8800
2017-07-27T09:47:42.908Z,10040
2017-07-27T09:48:44.946Z,9696
2017-07-27T09:49:47.655Z,8296
2017-07-27T09:50:49.687Z,8416
2017-07-27T09:51:51.728Z,10076
2017-07-27T09:52:53.755Z,9580
2017-07-27T09:53:55.780Z,9556
2017-07-27T09:54:57.808Z,8936
2017-07-27T09:56:00.175Z,8476
2017-07-27T09:57:02.899Z,6496
2017-07-27T09:58:04.931Z,6032
2017-07-27T09:59:06.966Z,5244
2017-07-27T10:00:09.335Z,4516
2017-07-27T10:01:11.359Z,4380
2017-07-27T10:02:13.404Z,4228
2017-07-27T10:03:15.434Z,5460
2017-07-27T10:04:17.464Z,7796
2017-07-27T10:05:19.491Z,7824
2017-07-27T10:06:21.527Z,7720
2017-07-27T10:07:23.565Z,7932
2017-07-27T10:08:25.933Z,7648
2017-07-27T10:09:27.977Z,6652
2017-07-27T10:10:30.345Z,6604
2017-07-27T10:11:32.724Z,9384
2017-07-27T10:12:35.103Z,12584
2017-07-27T10:13:37.128Z,9804
2017-07-27T10:14:39.167Z,8840
2017-07-27T10:15:41.199Z,8668
2017-07-27T10:16:43.578Z,11536
2017-07-27T10:17:45.967Z,8996
2017-07-27T10:18:47.997Z,6960
2017-07-27T10:19:50.380Z,7216
2017-07-27T10:20:52.412Z,6276
2017-07-27T10:21:54.778Z,6324
2017-07-27T10:22:56.806Z,6864
2017-07-27T10:23:58.841Z,8608
2017-07-27T10:25:01.213Z,12968
2017-07-27T10:26:03.264Z,13968
2017-07-27T10:27:06.013Z,12772
2017-07-27T10:28:08.406Z,12212
2017-07-27T10:29:10.776Z,11996
2017-07-27T10:30:12.815Z,15456
2017-07-27T10:31:14.845Z,18032
2017-07-27T10:32:17.912Z,19168
2017-07-27T10:33:19.947Z,19808
2017-07-27T10:34:22.321Z,20032
2017-07-27T10:35:24.356Z,21632
2017-07-27T10:36:26.408Z,22208
2017-07-27T10:37:28.443Z,21344
2017-07-27T10:38:30.475Z,20224
2017-07-27T10:39:32.511Z,18572
2017-07-27T10:40:34.908Z,19584
2017-07-27T10:41:36.943Z,22432
2017-07-27T10:42:38.978Z,24064
2017-07-27T10:43:41.344Z,24736
2017-07-27T10:44:44.068Z,19360
2017-07-27T10:45:46.121Z,11564
2017-07-27T10:46:48.154Z,12960
2017-07-27T10:47:50.201Z,14452
2017-07-27T10:48:52.230Z,13048
2017-07-27T10:49:54.282Z,12556
2017-07-27T10:50:56.320Z,12988
2017-07-27T10:51:59.054Z,12216
2017-07-27T10:53:01.089Z,15944
2017-07-27T10:54:03.459Z,14556
2017-07-27T10:55:05.513Z,14544
2017-07-27T10:56:07.901Z,12088
2017-07-27T10:57:10.263Z,10684
2017-07-27T10:58:12.310Z,9580
2017-07-27T10:59:15.027Z,10288
2017-07-27T11:00:17.753Z,10872
2017-07-27T11:01:19.796Z,10196
2017-07-27T11:02:22.177Z,9680
2017-07-27T11:03:24.221Z,11792
2017-07-27T11:04:26.256Z,15988
2017-07-27T11:05:28.302Z,16756
2017-07-27T11:06:30.327Z,13844
2017-07-27T11:07:32.364Z,16220
2017-07-27T11:08:34.405Z,27776
2017-07-27T11:09:36.449Z,32480
2017-07-27T11:10:38.496Z,39840
2017-07-27T11:11:40.533Z,45760
2017-07-27T11:12:42.589Z,44800
2017-07-27T11:13:44.981Z,45056
2017-07-27T11:14:47.023Z,44832
2017-07-27T11:15:49.072Z,38880
2017-07-27T11:16:51.103Z,38240
2017-07-27T11:17:53.495Z,45664
2017-07-27T11:18:55.874Z,44800
2017-07-27T11:19:57.933Z,36512
2017-07-27T11:20:59.976Z,39136
2017-07-27T11:22:02.360Z,38656
2017-07-27T11:23:04.414Z,36128
2017-07-27T11:24:06.456Z,34656
2017-07-27T11:25:08.496Z,35840
2017-07-27T11:26:10.534Z,33024
2017-07-27T11:27:12.924Z,26304
2017-07-27T11:28:14.975Z,18752
2017-07-27T11:29:17.005Z,14476
2017-07-27T11:30:19.053Z,18816
2017-07-27T11:31:21.097Z,22304
2017-07-27T11:32:23.135Z,33824
2017-07-27T11:33:25.505Z,36064
2017-07-27T11:34:27.566Z,39936
2017-07-27T11:35:29.964Z,29312
2017-07-27T11:36:33.021Z,40768
2017-07-27T11:37:35.053Z,38368
2017-07-27T11:38:37.105Z,25696
2017-07-27T11:39:39.146Z,26464
2017-07-27T11:40:41.527Z,35424
2017-07-27T11:41:43.959Z,58624
2017-07-27T11:42:46.646Z,40352
2017-07-27T11:43:48.750Z,44864
2017-07-27T11:44:51.136Z,66560
2017-07-27T11:45:53.566Z,147840
2017-07-27T11:46:55.949Z,62464
2017-07-27T11:47:57.988Z,77600
2017-07-27T11:49:00.116Z,76384
2017-07-27T11:50:02.159Z,72416
2017-07-27T11:51:04.881Z,76128
2017-07-27T11:52:06.926Z,85664
2017-07-27T11:53:09.203Z,34240
2017-07-27T11:54:12.276Z,37184
2017-07-27T11:55:16.341Z,111040
2017-07-27T11:56:18.380Z,79392
2017-07-27T11:57:21.106Z,32256
2017-07-27T11:58:23.494Z,35104
2017-07-27T11:59:25.881Z,40064
2017-07-27T12:00:27.915Z,40864
2017-07-27T12:01:30.326Z,35392
2017-07-27T12:02:32.370Z,46368
2017-07-27T12:03:35.100Z,144384
2017-07-27T12:04:37.493Z,147328
2017-07-27T12:05:39.872Z,107552
2017-07-27T12:06:41.924Z,36352
2017-07-27T12:07:43.960Z,33760
2017-07-27T12:08:46.012Z,30112
2017-07-27T12:09:48.052Z,33600
2017-07-27T12:10:50.087Z,62560
2017-07-27T12:11:52.134Z,79712
2017-07-27T12:12:54.189Z,83264
2017-07-27T12:13:56.564Z,28160
2017-07-27T12:14:58.945Z,29600
2017-07-27T12:16:00.996Z,43584
2017-07-27T12:17:03.039Z,85120
2017-07-27T12:18:05.084Z,132320
2017-07-27T12:19:07.125Z,127776
2017-07-27T12:20:09.155Z,77280
2017-07-27T12:21:12.140Z,106624
2017-07-27T12:22:14.517Z,98752
2017-07-27T12:23:16.562Z,86848
2017-07-27T12:24:18.968Z,31744
2017-07-27T12:25:21.002Z,36224
2017-07-27T12:26:23.060Z,32768
2017-07-27T12:27:25.089Z,40704
2017-07-27T12:28:27.471Z,69056
2017-07-27T12:29:29.881Z,65024
2017-07-27T12:30:32.259Z,67360
2017-07-27T12:31:34.979Z,104064
2017-07-27T12:32:37.039Z,76896
2017-07-27T12:33:39.754Z,88160
2017-07-27T12:34:42.132Z,60160
2017-07-27T12:35:44.170Z,55552
2017-07-27T12:36:46.255Z,61088
2017-07-27T12:37:48.633Z,72992
2017-07-27T12:38:50.681Z,71968
2017-07-27T12:39:53.303Z,72736
2017-07-27T12:40:55.687Z,63904
2017-07-27T12:41:58.062Z,62304
2017-07-27T12:43:00.137Z,54112
2017-07-27T12:44:02.176Z,26080
2017-07-27T12:45:04.227Z,16916
2017-07-27T12:46:06.270Z,17236
2017-07-27T12:47:08.656Z,20256
2017-07-27T12:48:10.705Z,21984
2017-07-27T12:49:12.762Z,23264
2017-07-27T12:50:14.797Z,23936
2017-07-27T12:51:16.842Z,24384
2017-07-27T12:52:18.931Z,23968
2017-07-27T12:53:21.159Z,22240
2017-07-27T12:54:23.344Z,20960
2017-07-27T12:55:25.745Z,22656
2017-07-27T12:56:28.467Z,24448
2017-07-27T12:57:30.512Z,26016
2017-07-27T12:58:32.565Z,28448
2017-07-27T12:59:34.606Z,30592
2017-07-27T13:00:36.982Z,32672
2017-07-27T13:01:39.020Z,33760
2017-07-27T13:02:41.109Z,34176
2017-07-27T13:03:43.499Z,35616
2017-07-27T13:04:45.554Z,36864
2017-07-27T13:05:48.003Z,38112
2017-07-27T13:06:50.046Z,39040
2017-07-27T13:07:52.090Z,36256
2017-07-27T13:08:54.123Z,31104
2017-07-27T13:09:57.044Z,27008
2017-07-27T13:10:59.202Z,23040
2017-07-27T13:12:01.599Z,19648
2017-07-27T13:13:03.659Z,15756
2017-07-27T13:14:05.728Z,14320
2017-07-27T13:15:08.145Z,13540
2017-07-27T13:16:13.024Z,12208
2017-07-27T13:18:48.085Z,18976
2017-07-27T13:19:50.477Z,23040
2017-07-27T13:20:52.520Z,22592
2017-07-27T13:21:54.554Z,24000
2017-07-27T13:22:56.610Z,24576
2017-07-27T13:23:58.654Z,25248
2017-07-27T13:25:01.036Z,26080
2017-07-27T13:26:03.565Z,26336
2017-07-27T13:27:08.211Z,26752
2017-07-27T13:28:10.723Z,27424
2017-07-27T13:29:13.171Z,28288
2017-07-27T13:30:15.335Z,30624
2017-07-27T13:31:17.741Z,31968
2017-07-27T13:32:19.775Z,33568
2017-07-27T13:33:21.825Z,39712
2017-07-27T13:34:23.864Z,48896
2017-07-27T13:35:26.584Z,52704
2017-07-27T13:36:28.971Z,55264
2017-07-27T13:37:31.012Z,44864
2017-07-27T13:38:33.054Z,35264
2017-07-27T13:39:35.776Z,24480
2017-07-27T13:40:37.819Z,16372
2017-07-27T13:41:39.882Z,13660
2017-07-27T13:42:41.934Z,11092
2017-07-27T13:43:43.975Z,7472
2017-07-27T13:44:46.018Z,5196
2017-07-27T13:45:48.414Z,4412
2017-07-27T13:46:50.458Z,4712
2017-07-27T13:47:52.496Z,7024
2017-07-27T13:48:54.543Z,12220
2017-07-27T13:49:56.584Z,19072
2017-07-27T13:50:59.333Z,25056
2017-07-27T13:52:02.050Z,37280
2017-07-27T13:53:04.087Z,28928
2017-07-27T13:54:06.462Z,27168
2017-07-27T13:55:08.505Z,28576
2017-07-27T13:56:10.529Z,30496